Time;durP1;ratioP1;P1;durP2;ratioP2;P2;SDS_P1;SDS_P2;PMS_P1;PMS_P2;Temp;Humidity;BMP_temperature;BMP_pressure;BME280_temperature;BME280_humidity;BME280_pressure;Samples;Min_cycle;Max_cycle;Signal;HPM_P1;HPM_P2
2024/01/28 00:01:44;;;;;;;28.30;8.32;;;;;;;0.09;100.00;103067.47;7396877;19;20010;-69
2024/01/28 00:04:12;;;;;;;20.15;7.45;;;;;;;0.10;100.00;103058.03;7396843;19;20484;-69
2024/01/28 00:06:40;;;;;;;30.15;8.40;;;;;;;0.07;100.00;103051.00;7396709;19;20014;-69
2024/01/28 00:09:09;;;;;;;25.70;6.55;;;;;;;0.06;100.00;103050.91;7396347;19;20143;-69
2024/01/28 00:11:39;;;;;;;20.38;7.28;;;;;;;0.02;100.00;103047.25;7396930;19;20078;-69
2024/01/28 00:14:10;;;;;;;28.65;7.88;;;;;;;-0.03;100.00;103044.41;7396419;19;20007;-69
2024/01/28 00:16:38;;;;;;;20.85;7.38;;;;;;;-0.07;100.00;103039.00;7395989;19;20035;-69
2024/01/28 00:19:08;;;;;;;18.80;7.60;;;;;;;-0.08;100.00;103042.38;7394941;19;20086;-69
2024/01/28 00:21:34;;;;;;;26.63;7.25;;;;;;;-0.12;100.00;103035.25;7396205;19;20097;-69
2024/01/28 00:24:04;;;;;;;21.40;7.82;;;;;;;-0.14;100.00;103042.88;7396597;19;20119;-69
2024/01/28 00:26:32;;;;;;;25.02;7.85;;;;;;;-0.18;100.00;103041.84;7396106;19;20032;-69
2024/01/28 00:29:01;;;;;;;25.15;7.72;;;;;;;-0.21;100.00;103040.75;7395801;19;20010;-69
2024/01/28 00:31:32;;;;;;;21.30;7.18;;;;;;;-0.24;100.00;103038.88;7396206;19;20015;-69
2024/01/28 00:34:01;;;;;;;24.55;8.30;;;;;;;-0.27;100.00;103043.84;7394939;19;20010;-69
2024/01/28 00:36:30;;;;;;;20.73;8.23;;;;;;;-0.30;100.00;103037.59;7395113;19;20010;-68
2024/01/28 00:38:58;;;;;;;25.30;8.88;;;;;;;-0.34;100.00;103047.75;7395991;19;20018;-68
2024/01/28 00:41:29;;;;;;;26.80;9.98;;;;;;;-0.37;100.00;103039.84;7395519;19;20029;-68
2024/01/28 00:43:58;;;;;;;22.83;8.23;;;;;;;-0.42;100.00;103033.47;7395911;19;20011;-68
2024/01/28 00:46:27;;;;;;;18.63;8.63;;;;;;;-0.45;100.00;103041.06;7393494;19;20011;-69
2024/01/28 00:48:58;;;;;;;19.75;8.55;;;;;;;-0.48;100.00;103045.13;7395715;19;20019;-69
2024/01/28 00:51:27;;;;;;;23.00;9.82;;;;;;;-0.53;100.00;103037.09;7394264;19;20023;-69
2024/01/28 00:53:55;;;;;;;25.23;9.85;;;;;;;-0.56;100.00;103042.09;7393984;19;20011;-69
2024/01/28 00:56:24;;;;;;;28.92;10.00;;;;;;;-0.59;100.00;103037.63;7395668;19;20011;-70
2024/01/28 00:58:53;;;;;;;31.38;11.48;;;;;;;-0.60;100.00;103046.16;7395093;19;20481;-69
2024/01/28 01:01:21;;;;;;;24.85;8.65;;;;;;;-0.62;100.00;103049.44;7393538;19;20014;-69
2024/01/28 01:03:50;;;;;;;23.55;9.50;;;;;;;-0.65;100.00;103052.72;7394086;19;20034;-69
2024/01/28 01:06:21;;;;;;;22.38;9.80;;;;;;;-0.69;100.00;103051.66;7394602;19;20015;-69
2024/01/28 01:08:49;;;;;;;26.50;10.98;;;;;;;-0.73;100.00;103046.22;7393389;19;20013;-69
2024/01/28 01:11:18;;;;;;;25.83;9.82;;;;;;;-0.73;100.00;103065.16;7393355;19;20019;-70
2024/01/28 01:13:53;;;;;;;25.58;9.98;;;;;;;-0.76;100.00;103059.78;7394667;19;20010;-69
2024/01/28 01:16:21;;;;;;;23.27;10.25;;;;;;;-0.79;100.00;103059.59;7395342;19;20115;-69
2024/01/28 01:18:50;;;;;;;21.08;9.07;;;;;;;-0.82;100.00;103059.44;7393019;19;20015;-69
2024/01/28 01:21:21;;;;;;;18.98;9.07;;;;;;;-0.84;100.00;103058.44;7398676;19;20023;-69
2024/01/28 01:23:49;;;;;;;29.75;11.38;;;;;;;-0.85;100.00;103057.56;7402974;19;20015;-69
2024/01/28 01:26:18;;;;;;;24.40;9.20;;;;;;;-0.85;100.00;103059.22;7401475;19;20394;-69
2024/01/28 01:28:46;;;;;;;24.48;10.40;;;;;;;-0.85;100.00;103059.22;7399345;19;20099;-69
2024/01/28 01:31:16;;;;;;;25.65;9.80;;;;;;;-0.85;100.00;103054.06;7401820;19;20419;-69
2024/01/28 01:33:50;;;;;;;26.10;9.85;;;;;;;-0.87;100.00;103058.25;7402186;19;20018;-70
2024/01/28 01:36:22;;;;;;;24.27;9.20;;;;;;;-0.89;100.00;103055.56;7402146;19;20031;-70
2024/01/28 01:38:50;;;;;;;19.70;9.80;;;;;;;-0.89;100.00;103052.97;7398768;19;20519;-69
2024/01/28 01:41:19;;;;;;;26.02;9.60;;;;;;;-0.89;100.00;103054.69;7399024;19;20020;-69
2024/01/28 01:43:47;;;;;;;21.98;9.57;;;;;;;-0.89;100.00;103049.53;7401481;19;20516;-69
2024/01/28 01:46:16;;;;;;;24.58;9.68;;;;;;;-0.90;100.00;103048.63;7398770;19;20021;-69
2024/01/28 01:48:45;;;;;;;25.00;10.25;;;;;;;-0.90;100.00;103050.31;7398495;19;20473;-68
2024/01/28 01:51:14;;;;;;;24.77;9.43;;;;;;;-0.92;100.00;103042.50;7401523;19;20007;-68
2024/01/28 01:53:46;;;;;;;25.70;9.65;;;;;;;-0.92;100.00;103045.06;7398304;19;20041;-68
2024/01/28 01:56:15;;;;;;;28.98;9.85;;;;;;;-0.92;100.00;103046.75;7401025;19;20011;-68
2024/01/28 01:58:46;;;;;;;20.80;9.82;;;;;;;-0.92;100.00;103034.75;7398624;19;20015;-69
2024/01/28 02:01:16;;;;;;;25.67;11.13;;;;;;;-0.92;100.00;103039.91;7401009;19;20011;-69
2024/01/28 02:03:45;;;;;;;23.48;9.52;;;;;;;-0.93;100.00;103032.09;7398627;19;20021;-68
2024/01/28 02:06:17;;;;;;;24.92;10.40;;;;;;;-0.95;100.00;103034.56;7400584;19;20011;-69
2024/01/28 02:08:48;;;;;;;30.13;10.38;;;;;;;-0.95;100.00;103031.97;7398410;19;20018;-69
2024/01/28 02:11:16;;;;;;;18.50;9.10;;;;;;;-0.97;100.00;103036.16;7400610;19;20367;-69
2024/01/28 02:13:46;;;;;;;25.27;10.38;;;;;;;-0.98;100.00;103037.84;7401479;19;20014;-69
2024/01/28 02:16:14;;;;;;;18.63;9.65;;;;;;;-0.99;100.00;103046.38;7400687;19;20026;-68
2024/01/28 02:18:43;;;;;;;24.55;11.25;;;;;;;-1.00;100.00;103038.53;7397642;19;20018;-69
2024/01/28 02:21:11;;;;;;;22.98;11.05;;;;;;;-1.01;100.00;103041.91;7400528;19;20018;-69
2024/01/28 02:23:43;;;;;;;28.08;11.63;;;;;;;-1.04;100.00;103046.88;7400450;19;20011;-69
2024/01/28 02:26:11;;;;;;;20.80;10.23;;;;;;;-1.06;100.00;103049.34;7400547;19;20018;-69
2024/01/28 02:28:40;;;;;;;27.45;11.48;;;;;;;-1.08;100.00;103050.94;7397868;19;20018;-69
2024/01/28 02:31:08;;;;;;;26.77;10.75;;;;;;;-1.10;100.00;103044.81;7399741;19;20031;-69
2024/01/28 02:33:36;;;;;;;22.30;10.90;;;;;;;-1.10;100.00;103049.06;7399826;19;20078;-70
2024/01/28 02:36:05;;;;;;;29.08;11.85;;;;;;;-1.11;100.00;103052.44;7400032;19;20018;-70
2024/01/28 02:38:34;;;;;;;27.15;10.80;;;;;;;-1.15;100.00;103049.66;7397756;19;20015;-70
2024/01/28 02:41:05;;;;;;;22.05;11.10;;;;;;;-1.16;100.00;103047.88;7399942;19;20014;-69
2024/01/28 02:43:34;;;;;;;27.02;11.18;;;;;;;-1.17;100.00;103056.41;7397176;19;20485;-69
2024/01/28 02:46:03;;;;;;;23.13;11.55;;;;;;;-1.18;100.00;103052.03;7399748;19;20014;-69
2024/01/28 02:48:31;;;;;;;22.73;11.23;;;;;;;-1.20;100.00;103042.41;7397167;19;20031;-69
2024/01/28 02:51:00;;;;;;;32.92;12.30;;;;;;;-1.21;100.00;103041.53;7399241;19;20010;-69
2024/01/28 02:53:28;;;;;;;31.67;12.43;;;;;;;-1.21;100.00;103038.09;7397161;19;20014;-69
2024/01/28 02:55:59;;;;;;;29.67;11.90;;;;;;;-1.20;100.00;103042.41;7399394;19;20035;-69
2024/01/28 02:58:30;;;;;;;24.33;11.30;;;;;;;-1.21;100.00;103041.53;7397102;19;20015;-69
2024/01/28 03:00:59;;;;;;;26.50;10.73;;;;;;;-1.23;100.00;103032.81;7397418;19;20078;-69
2024/01/28 03:03:28;;;;;;;27.52;10.88;;;;;;;-1.21;100.00;103043.25;7396531;19;20022;-69
2024/01/28 03:05:56;;;;;;;21.60;9.98;;;;;;;-1.22;100.00;103042.34;7399064;19;20355;-69
2024/01/28 03:08:24;;;;;;;26.38;10.77;;;;;;;-1.23;100.00;103026.78;7396744;19;20031;-68
2024/01/28 03:10:53;;;;;;;23.10;10.65;;;;;;;-1.23;100.00;103035.41;7398897;19;20023;-68
2024/01/28 03:13:21;;;;;;;29.27;10.80;;;;;;;-1.23;100.00;103027.66;7396386;19;20364;-68
2024/01/28 03:15:54;;;;;;;28.15;11.15;;;;;;;-1.22;100.00;103026.88;7398452;19;20027;-68
2024/01/28 03:18:22;;;;;;;30.38;11.15;;;;;;;-1.21;100.00;103022.63;7397043;19;20038;-68
2024/01/28 03:20:50;;;;;;;25.25;11.18;;;;;;;-1.21;100.00;103027.78;7398274;19;20359;-68
2024/01/28 03:23:19;;;;;;;24.17;10.80;;;;;;;-1.21;100.00;103030.38;7398514;19;20018;-68
2024/01/28 03:25:48;;;;;;;33.67;11.75;;;;;;;-1.20;100.00;103032.13;7398387;19;20018;-68
2024/01/28 03:28:17;;;;;;;28.85;11.98;;;;;;;-1.21;100.00;103031.25;7396666;19;20028;-68
2024/01/28 03:30:45;;;;;;;33.00;13.18;;;;;;;-1.20;100.00;103029.53;7398208;19;20014;-68
2024/01/28 03:33:16;;;;;;;34.17;13.52;;;;;;;-1.21;100.00;103023.50;7398204;19;20011;-68
2024/01/28 03:35:45;;;;;;;21.73;12.07;;;;;;;-1.20;100.00;103026.97;7395784;19;20481;-68
2024/01/28 03:38:13;;;;;;;26.55;12.32;;;;;;;-1.21;100.00;103033.81;7396433;19;20014;-68
2024/01/28 03:40:43;;;;;;;27.52;12.43;;;;;;;-1.22;100.00;103031.16;7395958;19;20025;-68
2024/01/28 03:43:11;;;;;;;29.25;11.68;;;;;;;-1.23;100.00;103024.22;7395961;19;20014;-68
2024/01/28 03:45:40;;;;;;;36.03;13.00;;;;;;;-1.23;100.00;103031.94;7397360;19;20015;-68
2024/01/28 03:48:09;;;;;;;32.30;11.75;;;;;;;-1.23;100.00;103027.66;7396089;19;20035;-68
2024/01/28 03:50:40;;;;;;;30.95;12.20;;;;;;;-1.24;100.00;103031.06;7395385;19;20027;-68
2024/01/28 03:53:09;;;;;;;23.88;10.15;;;;;;;-1.23;100.00;103027.66;7396117;19;20027;-68
2024/01/28 03:55:37;;;;;;;26.15;10.93;;;;;;;-1.24;100.00;103027.56;7395546;19;20018;-68
2024/01/28 03:58:06;;;;;;;22.88;10.70;;;;;;;-1.23;100.00;103027.66;7395980;19;20014;-68
2024/01/28 04:00:34;;;;;;;25.55;10.88;;;;;;;-1.24;100.00;103028.50;7397232;19;20018;-68
2024/01/28 04:03:03;;;;;;;23.90;11.63;;;;;;;-1.24;100.00;103031.06;7394529;19;20018;-69
2024/01/28 04:05:32;;;;;;;25.30;10.30;;;;;;;-1.23;100.00;103026.78;7395338;19;20014;-68
2024/01/28 04:08:04;;;;;;;24.95;11.35;;;;;;;-1.24;100.00;103033.63;7395239;19;20498;-68
2024/01/28 04:10:32;;;;;;;28.58;10.50;;;;;;;-1.24;100.00;103025.91;7395548;19;20015;-69
2024/01/28 04:13:00;;;;;;;23.63;11.38;;;;;;;-1.24;100.00;103025.91;7396335;19;20018;-68
2024/01/28 04:15:29;;;;;;;24.80;11.48;;;;;;;-1.25;100.00;103025.78;7394666;19;20078;-68
2024/01/28 04:17:57;;;;;;;21.30;10.48;;;;;;;-1.24;100.00;103032.72;7395489;19;20023;-68
2024/01/28 04:20:26;;;;;;;26.98;10.73;;;;;;;-1.25;100.00;103029.28;7396247;19;20077;-68
2024/01/28 04:22:54;;;;;;;28.40;11.02;;;;;;;-1.27;100.00;103025.69;7397091;19;20017;-69
2024/01/28 04:25:25;;;;;;;20.38;10.63;;;;;;;-1.28;100.00;103021.34;7396305;19;20077;-68
2024/01/28 04:27:54;;;;;;;24.90;11.32;;;;;;;-1.28;100.00;103018.75;7395423;19;20083;-68
2024/01/28 04:30:22;;;;;;;25.90;11.10;;;;;;;-1.30;100.00;103017.78;7396279;19;20014;-68
2024/01/28 04:32:51;;;;;;;24.27;11.07;;;;;;;-1.32;100.00;103020.25;7396257;19;20066;-68
2024/01/28 04:35:26;;;;;;;27.40;11.98;;;;;;;-1.33;100.00;103022.72;7396100;19;20083;-68
2024/01/28 04:37:54;;;;;;;25.38;11.18;;;;;;;-1.34;100.00;103026.09;7394622;19;20066;-68
2024/01/28 04:40:25;;;;;;;24.70;11.90;;;;;;;-1.37;100.00;103018.19;7395579;19;20082;-68
2024/01/28 04:42:54;;;;;;;29.90;11.68;;;;;;;-1.39;100.00;103025.81;7395595;19;20517;-68
2024/01/28 04:45:22;;;;;;;23.15;10.55;;;;;;;-1.40;100.00;103020.53;7395853;19;20018;-68
2024/01/28 04:47:50;;;;;;;26.40;11.38;;;;;;;-1.42;100.00;103022.16;7393559;19;20070;-68
2024/01/28 04:50:19;;;;;;;21.35;11.43;;;;;;;-1.45;100.00;103025.41;7395305;19;20414;-68
2024/01/28 04:52:47;;;;;;;25.38;11.45;;;;;;;-1.46;100.00;103022.75;7395185;19;20504;-68
2024/01/28 04:55:16;;;;;;;37.45;17.92;;;;;;;-1.49;100.00;103016.59;7393048;19;20073;-68
2024/01/28 04:57:47;;;;;;;26.20;12.57;;;;;;;-1.50;100.00;103022.53;7394359;19;20031;-68
2024/01/28 05:00:17;;;;;;;22.10;10.65;;;;;;;-1.53;100.00;103024.03;7394064;19;20082;-68
2024/01/28 05:02:45;;;;;;;22.77;10.98;;;;;;;-1.55;100.00;103021.34;7394344;19;20023;-68
2024/01/28 05:05:14;;;;;;;21.52;11.23;;;;;;;-1.57;100.00;103025.50;7393518;19;20011;-68
2024/01/28 05:07:42;;;;;;;23.70;11.57;;;;;;;-1.60;100.00;103022.75;7394058;19;20014;-68
2024/01/28 05:10:12;;;;;;;24.40;12.32;;;;;;;-1.61;100.00;103025.22;7393404;19;20018;-68
2024/01/28 05:12:41;;;;;;;30.55;14.07;;;;;;;-1.63;100.00;103025.13;7394758;19;20011;-68
2024/01/28 05:15:16;;;;;;;26.92;14.63;;;;;;;-1.66;100.00;103043.81;7395025;19;20014;-68
2024/01/28 05:17:44;;;;;;;33.85;13.63;;;;;;;-1.68;100.00;103040.25;7393611;19;20030;-68
2024/01/28 05:20:14;;;;;;;26.42;14.00;;;;;;;-1.71;100.00;103042.63;7394991;19;20019;-68
2024/01/28 05:22:43;;;;;;;29.60;13.55;;;;;;;-1.74;100.00;103041.56;7394576;19;20481;-68
2024/01/28 05:25:13;;;;;;;31.05;13.18;;;;;;;-1.74;100.00;103044.13;7394923;19;20070;-68
2024/01/28 05:27:42;;;;;;;24.42;12.82;;;;;;;-1.77;100.00;103044.78;7393377;19;20002;-68
2024/01/28 05:30:13;;;;;;;29.33;12.15;;;;;;;-1.78;100.00;103055.00;7394442;19;20018;-68
2024/01/28 05:32:43;;;;;;;21.73;12.10;;;;;;;-1.82;100.00;103054.81;7395251;19;20021;-68
2024/01/28 05:35:11;;;;;;;27.70;12.70;;;;;;;-1.83;100.00;103054.72;7395113;19;20032;-68
2024/01/28 05:37:40;;;;;;;27.25;12.02;;;;;;;-1.85;100.00;103058.84;7392274;19;20545;-68
2024/01/28 05:40:10;;;;;;;24.45;12.63;;;;;;;-1.88;100.00;103062.13;7394559;19;20422;-68
2024/01/28 05:42:39;;;;;;;21.42;12.95;;;;;;;-1.89;100.00;103060.31;7392541;19;20035;-68
2024/01/28 05:45:09;;;;;;;31.92;14.32;;;;;;;-1.91;100.00;103067.03;7394377;19;20355;-68
2024/01/28 05:47:40;;;;;;;22.25;12.88;;;;;;;-1.91;100.00;103066.16;7393226;19;20066;-68
2024/01/28 05:50:08;;;;;;;36.90;14.68;;;;;;;-1.93;100.00;103065.16;7394745;19;20094;-68
2024/01/28 05:52:37;;;;;;;21.45;13.75;;;;;;;-1.94;100.00;103056.56;7393858;19;20495;-68
2024/01/28 05:55:06;;;;;;;22.40;12.63;;;;;;;-1.95;100.00;103056.47;7392149;19;20066;-68
2024/01/28 05:57:35;;;;;;;21.88;13.55;;;;;;;-1.97;100.00;103051.22;7393487;19;20022;-68
2024/01/28 06:00:04;;;;;;;27.02;13.20;;;;;;;-2.00;100.00;103045.84;7394118;19;20021;-68
2024/01/28 06:02:32;;;;;;;33.08;15.10;;;;;;;-2.01;100.00;103041.47;7391376;19;20018;-68
2024/01/28 06:05:03;;;;;;;32.22;13.85;;;;;;;-2.03;100.00;103043.97;7392264;19;20022;-68
2024/01/28 06:07:32;;;;;;;39.20;20.23;;;;;;;-2.04;100.00;103044.75;7396447;19;20369;-68
2024/01/28 06:10:00;;;;;;;31.17;14.65;;;;;;;-2.04;100.00;103043.88;7400749;19;20011;-68
2024/01/28 06:12:29;;;;;;;28.27;14.38;;;;;;;-2.05;100.00;103042.06;7401060;19;20014;-68
2024/01/28 06:15:02;;;;;;;31.35;14.95;;;;;;;-2.06;100.00;103054.06;7400253;19;20403;-68
2024/01/28 06:17:31;;;;;;;31.38;14.75;;;;;;;-2.08;100.00;103047.03;7399301;19;20536;-68
2024/01/28 06:20:03;;;;;;;28.48;15.57;;;;;;;-2.10;100.00;103054.63;7400811;19;20017;-69
2024/01/28 06:22:31;;;;;;;66.70;29.60;;;;;;;-2.10;100.00;103051.16;7401168;19;20021;-68
2024/01/28 06:25:01;;;;;;;52.55;24.10;;;;;;;-2.11;100.00;103047.72;7398112;19;20078;-68
2024/01/28 06:27:30;;;;;;;45.65;18.95;;;;;;;-2.13;100.00;103055.31;7398884;19;20010;-68
2024/01/28 06:29:58;;;;;;;37.20;18.02;;;;;;;-2.15;100.00;103066.28;7397614;19;20012;-68
2024/01/28 06:32:27;;;;;;;35.22;19.55;;;;;;;-2.15;100.00;103062.03;7400405;19;20011;-68
2024/01/28 06:34:55;;;;;;;33.92;19.83;;;;;;;-2.16;100.00;103065.41;7399926;19;20509;-68
2024/01/28 06:37:27;;;;;;;27.60;15.68;;;;;;;-2.17;100.00;103065.31;7399087;19;20077;-68
2024/01/28 06:39:55;;;;;;;27.83;15.52;;;;;;;-2.18;100.00;103072.09;7401188;19;20015;-68
2024/01/28 06:42:24;;;;;;;31.33;15.38;;;;;;;-2.19;100.00;103070.31;7400849;19;20062;-68
2024/01/28 06:44:53;;;;;;;31.52;14.02;;;;;;;-2.18;100.00;103066.09;7400082;19;20010;-68
2024/01/28 06:47:21;;;;;;;31.80;15.15;;;;;;;-2.18;100.00;103060.94;7398862;19;20078;-69
2024/01/28 06:49:50;;;;;;;32.88;16.02;;;;;;;-2.15;100.00;103056.91;7397382;19;20090;-68
2024/01/28 06:52:18;;;;;;;35.80;16.52;;;;;;;-2.11;100.00;103070.88;7399570;19;20026;-69
2024/01/28 06:54:49;;;;;;;37.55;17.38;;;;;;;-2.10;100.00;103051.16;7399034;19;20557;-68
2024/01/28 06:57:19;;;;;;;34.72;15.80;;;;;;;-2.08;100.00;103058.19;7398259;19;20070;-68
2024/01/28 06:59:48;;;;;;;26.60;14.90;;;;;;;-2.05;100.00;103058.38;7398950;19;20074;-69
2024/01/28 07:02:16;;;;;;;32.40;16.00;;;;;;;-2.02;100.00;103062.84;7397199;19;20036;-68
2024/01/28 07:04:45;;;;;;;26.95;15.10;;;;;;;-1.99;100.00;103060.50;7396873;19;20074;-67
2024/01/28 07:07:13;;;;;;;29.42;15.65;;;;;;;-1.99;100.00;103055.34;7397958;19;20018;-68
2024/01/28 07:09:42;;;;;;;24.15;14.88;;;;;;;-1.99;100.00;103058.81;7396310;19;20038;-68
2024/01/28 07:12:13;;;;;;;34.33;17.35;;;;;;;-1.99;100.00;103063.94;7396788;19;20019;-67
2024/01/28 07:14:43;;;;;;;30.15;17.60;;;;;;;-2.00;100.00;103057.06;7399378;19;20031;-67
2024/01/28 07:17:11;;;;;;;38.10;18.75;;;;;;;-1.95;100.00;103067.63;7396022;19;20086;-68
2024/01/28 07:19:40;;;;;;;40.97;20.52;;;;;;;-1.91;100.00;103061.00;7396469;19;20014;-68
2024/01/28 07:22:11;;;;;;;32.65;16.88;;;;;;;-1.88;100.00;103056.97;7398437;19;20027;-68
2024/01/28 07:24:40;;;;;;;28.38;15.15;;;;;;;-1.83;100.00;103058.16;7396804;19;20008;-68
2024/01/28 07:27:08;;;;;;;35.08;16.95;;;;;;;-1.80;100.00;103049.75;7397465;19;20362;-67
2024/01/28 07:29:39;;;;;;;38.92;19.52;;;;;;;-1.77;100.00;103049.94;7396349;19;20081;-68
2024/01/28 07:32:09;;;;;;;39.17;20.08;;;;;;;-1.73;100.00;103045.88;7396730;19;20014;-68
2024/01/28 07:34:44;;;;;;;37.22;16.67;;;;;;;-1.71;100.00;103052.03;7398299;19;20011;-68
2024/01/28 07:37:13;;;;;;;24.67;15.10;;;;;;;-1.71;100.00;103049.47;7397420;19;20015;-68
2024/01/28 07:39:41;;;;;;;35.13;16.17;;;;;;;-1.72;100.00;103040.88;7395579;19;20018;-68
2024/01/28 07:42:10;;;;;;;32.05;15.05;;;;;;;-1.71;100.00;103039.16;7397654;19;20083;-68
2024/01/28 07:44:41;;;;;;;26.63;15.52;;;;;;;-1.71;100.00;103034.03;7397416;19;20101;-68
2024/01/28 07:47:09;;;;;;;37.70;17.40;;;;;;;-1.70;100.00;103035.81;7396139;19;20078;-68
2024/01/28 07:49:37;;;;;;;30.52;16.77;;;;;;;-1.69;100.00;103042.75;7395725;19;20073;-68
2024/01/28 07:52:07;;;;;;;31.58;17.17;;;;;;;-1.69;100.00;103040.16;7397528;19;20027;-68
2024/01/28 07:54:36;;;;;;;32.67;17.98;;;;;;;-1.68;100.00;103039.34;7395037;19;20490;-67
2024/01/28 07:57:04;;;;;;;38.42;17.75;;;;;;;-1.68;100.00;103034.22;7396371;19;20011;-67
2024/01/28 07:59:33;;;;;;;35.10;17.33;;;;;;;-1.67;100.00;103036.00;7395092;19;20489;-68
2024/01/28 08:02:04;;;;;;;30.98;18.88;;;;;;;-1.65;100.00;103031.84;7397309;19;20111;-68
2024/01/28 08:04:32;;;;;;;40.20;19.25;;;;;;;-1.64;100.00;103039.66;7394549;19;20082;-67
2024/01/28 08:07:01;;;;;;;31.40;17.83;;;;;;;-1.62;100.00;103033.72;7396046;19;20015;-68
2024/01/28 08:09:31;;;;;;;33.20;19.02;;;;;;;-1.61;100.00;103036.41;7395922;19;20018;-67
2024/01/28 08:12:00;;;;;;;36.53;17.70;;;;;;;-1.57;100.00;103037.50;7398803;19;20014;-68
2024/01/28 08:14:29;;;;;;;41.38;18.50;;;;;;;-1.54;100.00;103038.59;7396896;19;20099;-68
2024/01/28 08:16:58;;;;;;;34.55;20.40;;;;;;;-1.51;100.00;103037.91;7396115;19;20015;-68
2024/01/28 08:19:30;;;;;;;42.65;22.90;;;;;;;-1.46;100.00;103035.63;7396540;19;20075;-68
2024/01/28 08:21:58;;;;;;;41.58;21.77;;;;;;;-1.44;100.00;103039.19;7395182;19;20014;-67
2024/01/28 08:24:27;;;;;;;45.95;24.05;;;;;;;-1.40;100.00;103036.00;7396369;19;20018;-68
2024/01/28 08:26:55;;;;;;;47.85;26.08;;;;;;;-1.38;100.00;103032.75;7395868;19;20006;-68
2024/01/28 08:29:24;;;;;;;48.95;24.17;;;;;;;-1.34;100.00;103027.00;7394012;19;20007;-68
2024/01/28 08:31:52;;;;;;;40.45;19.35;;;;;;;-1.29;100.00;103029.84;7394517;19;20022;-68
2024/01/28 08:34:21;;;;;;;32.58;17.80;;;;;;;-1.21;100.00;103036.41;7394367;19;20018;-68
2024/01/28 08:36:52;;;;;;;38.92;19.42;;;;;;;-1.17;100.00;103035.78;7395625;19;20082;-68
2024/01/28 08:39:21;;;;;;;35.22;17.67;;;;;;;-1.11;100.00;103035.31;7394042;19;20423;-68
2024/01/28 08:41:50;;;;;;;34.38;16.23;;;;;;;-1.07;100.00;103034.69;7395778;19;20015;-68
2024/01/28 08:44:20;;;;;;;27.92;14.40;;;;;;;-1.01;100.00;103042.81;7395674;19;20025;-68
2024/01/28 08:46:48;;;;;;;36.50;17.00;;;;;;;-0.95;100.00;103042.28;7395251;19;20375;-68
2024/01/28 08:49:17;;;;;;;32.47;15.00;;;;;;;-0.91;100.00;103033.06;7394813;19;20016;-68
2024/01/28 08:51:45;;;;;;;28.95;14.80;;;;;;;-0.86;100.00;103040.31;7395183;19;20502;-69
2024/01/28 08:54:17;;;;;;;30.90;13.82;;;;;;;-0.80;100.00;103033.75;7395413;19;20031;-69
2024/01/28 08:56:47;;;;;;;30.88;15.02;;;;;;;-0.74;100.00;103037.59;7394703;19;20086;-69
2024/01/28 08:59:16;;;;;;;29.92;14.95;;;;;;;-0.66;100.00;103041.53;7396205;19;20047;-68
2024/01/28 09:01:47;;;;;;;34.55;15.82;;;;;;;-0.60;100.00;103055.59;7396723;19;20015;-68
2024/01/28 09:04:15;;;;;;;36.20;16.65;;;;;;;-0.55;100.00;103060.22;7393466;19;20015;-69
2024/01/28 09:06:44;;;;;;;33.35;17.98;;;;;;;-0.51;100.00;103062.19;7394634;19;20031;-69
2024/01/28 09:09:12;;;;;;;30.00;15.73;;;;;;;-0.47;100.00;103050.38;7393379;19;20070;-69
2024/01/28 09:11:43;;;;;;;38.08;16.48;;;;;;;-0.44;100.00;103042.84;7394718;19;20505;-69
2024/01/28 09:14:12;;;;;;;27.63;15.32;;;;;;;-0.40;100.00;103036.19;7393671;19;20347;-68
2024/01/28 09:16:40;;;;;;;35.70;16.63;;;;;;;-0.34;100.00;103033.97;7394712;19;20073;-69
2024/01/28 09:19:09;;;;;;;29.05;14.95;;;;;;;-0.29;100.00;103040.28;7392729;19;20014;-68
2024/01/28 09:21:37;;;;;;;25.95;13.63;;;;;;;-0.23;100.00;103035.50;7394389;19;20459;-69
2024/01/28 09:24:06;;;;;;;36.95;15.10;;;;;;;-0.15;100.00;103050.53;7392588;19;20074;-69
2024/01/28 09:26:34;;;;;;;30.30;14.98;;;;;;;-0.05;100.00;103051.19;7393847;19;20493;-69
2024/01/28 09:29:06;;;;;;;27.63;13.02;;;;;;;0.08;100.00;103054.50;7393349;19;20509;-69
2024/01/28 09:31:34;;;;;;;28.75;13.13;;;;;;;0.19;100.00;103053.44;7392803;19;20066;-69
2024/01/28 09:34:03;;;;;;;25.15;12.20;;;;;;;0.27;100.00;103052.16;7394382;19;20015;-68
2024/01/28 09:36:31;;;;;;;26.20;13.00;;;;;;;0.32;100.00;103050.72;7394009;19;20018;-67
2024/01/28 09:39:00;;;;;;;28.17;12.10;;;;;;;0.37;100.00;103058.75;7394287;19;20021;-68
2024/01/28 09:41:38;;;;;;;29.42;13.82;;;;;;;0.43;100.00;103053.03;7394926;19;20078;-68
2024/01/28 09:44:09;;;;;;;26.55;13.00;;;;;;;0.48;100.00;103047.34;7399377;19;20015;-68
2024/01/28 09:46:39;;;;;;;22.60;11.90;;;;;;;0.53;100.00;103044.13;7401607;19;20089;-68
2024/01/28 09:49:11;;;;;;;21.83;12.13;;;;;;;0.57;100.00;103046.97;7400676;19;20014;-68
2024/01/28 09:51:39;;;;;;;26.58;11.07;;;;;;;0.65;100.00;103055.16;7401892;19;20003;-67
2024/01/28 09:54:09;;;;;;;23.45;11.27;;;;;;;0.71;100.00;103052.91;7401014;19;20075;-66
2024/01/28 09:56:40;;;;;;;24.23;9.38;;;;;;;0.77;100.00;103047.19;7399432;19;20078;-69
2024/01/28 09:59:15;;;;;;;22.45;9.82;;;;;;;0.86;100.00;103049.41;7401500;19;20016;-67
2024/01/28 10:01:44;;;;;;;20.30;9.93;;;;;;;0.93;100.00;103051.53;7402276;19;20414;-66
2024/01/28 10:04:15;;;;;;;22.85;9.45;;;;;;;1.00;100.00;103053.66;7400005;19;20014;-68
2024/01/28 10:06:46;;;;;;;21.50;9.65;;;;;;;1.06;100.00;103045.31;7401048;19;20015;-68
2024/01/28 10:09:14;;;;;;;19.33;9.88;;;;;;;1.11;100.00;103034.44;7399346;19;20006;-67
2024/01/28 10:11:42;;;;;;;20.40;8.48;;;;;;;1.18;100.00;103022.72;7401258;19;20014;-67
2024/01/28 10:14:13;;;;;;;27.05;9.45;;;;;;;1.28;100.00;103021.53;7400351;19;20036;-67
2024/01/28 10:16:44;;;;;;;24.00;8.50;;;;;;;1.40;100.00;103021.28;7401840;19;20015;-68
2024/01/28 10:19:13;;;;;;;23.98;8.07;;;;;;;1.53;100.00;103015.03;7404209;19;20485;-67
2024/01/28 10:21:41;;;;;;;26.52;12.10;;;;;;;1.65;100.00;103012.22;7401039;19;20014;-68
2024/01/28 10:24:11;;;;;;;21.60;8.82;;;;;;;1.74;100.00;103007.50;7400295;19;20070;-68
2024/01/28 10:26:39;;;;;;;16.08;7.22;;;;;;;1.84;100.00;103003.69;7400472;19;20426;-69
2024/01/28 10:29:11;;;;;;;19.92;7.43;;;;;;;1.93;100.00;103002.47;7403827;19;20070;-68
2024/01/28 10:31:42;;;;;;;23.67;7.05;;;;;;;2.02;100.00;103002.03;7403142;19;20011;-68
2024/01/28 10:34:18;;;;;;;17.98;6.45;;;;;;;2.11;100.00;102994.72;7400846;19;20022;-68
2024/01/28 10:36:50;;;;;;;17.63;6.95;;;;;;;2.23;100.00;102996.13;7401283;19;20193;-68
2024/01/28 10:39:22;;;;;;;15.65;6.57;;;;;;;2.33;100.00;102998.34;7402316;19;20075;-68
2024/01/28 10:41:57;;;;;;;18.25;6.95;;;;;;;2.44;100.00;102991.97;7402315;19;20078;-68
2024/01/28 10:44:26;;;;;;;16.70;6.28;;;;;;;2.56;100.00;102991.66;7402591;19;20011;-68
2024/01/28 10:47:01;;;;;;;16.77;6.78;;;;;;;2.64;100.00;102992.06;7401267;19;20021;-68
2024/01/28 10:49:34;;;;;;;20.98;7.15;;;;;;;2.73;100.00;102988.97;7400871;19;20087;-66
2024/01/28 10:52:03;;;;;;;19.50;9.73;;;;;;;2.83;100.00;102991.22;7398125;19;20015;-66
2024/01/28 10:54:32;;;;;;;17.70;8.68;;;;;;;2.94;100.00;102986.50;7396666;19;20013;-65
2024/01/28 10:57:02;;;;;;;19.73;7.57;;;;;;;3.04;100.00;102982.63;7396930;19;20094;-65
2024/01/28 10:59:31;;;;;;;20.40;7.20;;;;;;;3.13;100.00;102974.38;7397463;19;20090;-66
2024/01/28 11:02:02;;;;;;;18.98;6.55;;;;;;;3.20;100.00;102984.22;7398809;19;20023;-65
2024/01/28 11:04:31;;;;;;;13.95;5.95;;;;;;;3.29;100.00;102973.38;7396523;19;20419;-65
2024/01/28 11:06:59;;;;;;;16.27;6.70;;;;;;;3.37;100.00;102975.44;7396768;19;20020;-65
2024/01/28 11:09:28;;;;;;;14.05;5.20;;;;;;;3.46;100.00;102961.09;7398393;19;20011;-65
2024/01/28 11:11:57;;;;;;;13.90;4.75;;;;;;;3.55;100.00;102953.72;7397095;19;20028;-66
2024/01/28 11:14:27;;;;;;;18.33;6.07;;;;;;;3.67;98.81;102949.03;7396813;19;20077;-66